createdAt,value
2023-04-01T00:01:57.484Z,14.43
2023-04-01T00:04:25.466Z,13.70
2023-04-01T00:06:53.093Z,13.05
2023-04-01T00:09:20.489Z,12.96
2023-04-01T00:11:47.956Z,14.15
2023-04-01T00:14:24.818Z,13.62
2023-04-01T00:16:56.874Z,12.45
2023-04-01T00:19:24.589Z,12.74
2023-04-01T00:21:57.183Z,13.29
2023-04-01T00:24:24.580Z,13.33
2023-04-01T00:26:56.766Z,14.54
2023-04-01T00:29:34.328Z,14.92
2023-04-01T00:32:05.547Z,14.69
2023-04-01T00:34:34.005Z,14.79
2023-04-01T00:37:07.428Z,14.84
2023-04-01T00:40:06.126Z,14.46
2023-04-01T00:42:26.786Z,13.92
2023-04-01T00:44:57.132Z,13.58
2023-04-01T00:47:33.147Z,14.05
2023-04-01T00:50:15.430Z,13.57
2023-04-01T00:53:10.388Z,14.20
2023-04-01T00:55:49.035Z,14.47
2023-04-01T00:58:24.785Z,14.44
2023-04-01T01:00:58.910Z,14.73
2023-04-01T01:03:26.051Z,14.40
2023-04-01T01:06:22.993Z,14.64
2023-04-01T01:09:26.795Z,13.74
2023-04-01T01:12:37.754Z,13.02
2023-04-01T01:15:33.731Z,12.66
2023-04-01T01:18:26.137Z,12.66
2023-04-01T01:21:40.998Z,13.49
2023-04-01T01:24:10.842Z,12.79
2023-04-01T01:27:09.674Z,12.93
2023-04-01T01:30:24.696Z,13.11
2023-04-01T01:33:35.299Z,13.69
2023-04-01T01:36:09.845Z,13.65
2023-04-01T01:38:39.224Z,13.81
2023-04-01T01:41:11.396Z,13.74
2023-04-01T01:43:50.432Z,13.29
2023-04-01T01:46:25.850Z,13.86
2023-04-01T01:49:02.156Z,14.50
2023-04-01T01:51:30.786Z,14.11
2023-04-01T01:54:02.851Z,13.87
2023-04-01T01:56:32.148Z,14.38
2023-04-01T01:59:09.031Z,14.39
2023-04-01T02:01:51.318Z,13.70
2023-04-01T02:04:21.826Z,13.76
2023-04-01T02:07:05.638Z,12.85
2023-04-01T02:09:35.276Z,13.44
2023-04-01T02:12:17.943Z,13.14
2023-04-01T02:15:01.082Z,13.57
2023-04-01T02:17:35.456Z,13.26
2023-04-01T02:20:19.630Z,14.00
2023-04-01T02:22:53.557Z,13.22
2023-04-01T02:25:31.090Z,13.59
2023-04-01T02:28:04.383Z,12.98
2023-04-01T02:30:37.802Z,12.74
2023-04-01T02:33:25.333Z,12.49
2023-04-01T02:35:54.772Z,12.63
2023-04-01T02:38:27.449Z,12.10
2023-04-01T02:41:03.737Z,12.12
2023-04-01T02:43:32.117Z,12.65
2023-04-01T02:46:02.873Z,12.90
2023-04-01T02:48:43.204Z,13.26
2023-04-01T02:51:11.175Z,13.42
2023-04-01T02:53:38.241Z,13.11
2023-04-01T02:56:13.790Z,13.14
2023-04-01T02:58:44.754Z,13.28
2023-04-01T03:01:19.192Z,13.23
2023-04-01T03:03:50.479Z,13.37
2023-04-01T03:06:21.050Z,13.68
2023-04-01T03:08:54.507Z,13.79
2023-04-01T03:11:24.280Z,13.83
2023-04-01T03:13:51.359Z,13.76
2023-04-01T03:16:23.485Z,13.86
2023-04-01T03:18:51.742Z,14.22
2023-04-01T03:21:22.950Z,14.08
2023-04-01T03:23:52.806Z,13.13
2023-04-01T03:26:24.248Z,13.10
2023-04-01T03:28:54.026Z,13.38
2023-04-01T03:31:23.274Z,13.35
2023-04-01T03:33:51.686Z,12.94
2023-04-01T03:36:19.605Z,10.51
2023-04-01T03:38:49.856Z,10.63
2023-04-01T03:41:19.535Z,11.14
2023-04-01T03:43:49.003Z,11.15
2023-04-01T03:46:20.938Z,11.41
2023-04-01T03:48:51.492Z,10.84
2023-04-01T03:51:21.473Z,10.50
2023-04-01T03:53:48.632Z,10.01
2023-04-01T03:56:20.688Z,9.57
2023-04-01T03:58:48.476Z,9.55
2023-04-01T04:01:26.250Z,10.41
2023-04-01T04:03:54.358Z,10.84
2023-04-01T04:06:24.015Z,11.52
2023-04-01T04:08:56.881Z,11.31
2023-04-01T04:11:24.463Z,11.00
2023-04-01T04:13:56.610Z,10.44
2023-04-01T04:16:27.532Z,10.58
2023-04-01T04:18:54.686Z,11.35
2023-04-01T04:21:22.599Z,11.13
2023-04-01T04:23:51.920Z,11.08
2023-04-01T04:26:32.734Z,10.65
2023-04-01T04:29:00.454Z,10.63
2023-04-01T04:31:31.953Z,10.81
2023-04-01T04:34:06.626Z,10.85
2023-04-01T04:36:33.651Z,10.31
2023-04-01T04:39:03.253Z,10.15
2023-04-01T04:41:30.565Z,10.34
2023-04-01T04:44:01.190Z,10.67
2023-04-01T04:46:31.588Z,10.91
2023-04-01T04:49:07.680Z,11.14
2023-04-01T04:51:37.380Z,10.90
2023-04-01T04:54:08.352Z,11.05
2023-04-01T04:56:36.989Z,11.08
2023-04-01T04:59:04.180Z,11.19
2023-04-01T05:01:34.493Z,10.86
2023-04-01T05:04:04.695Z,10.72
2023-04-01T05:06:33.474Z,10.96
2023-04-01T05:09:11.346Z,11.13
2023-04-01T05:11:43.460Z,10.95
2023-04-01T05:14:17.972Z,10.86
2023-04-01T05:16:55.681Z,10.55
2023-04-01T05:19:28.565Z,10.96
2023-04-01T05:21:55.783Z,11.07
2023-04-01T05:24:24.084Z,11.23
2023-04-01T05:26:55.857Z,11.39
2023-04-01T05:29:46.582Z,11.54
2023-04-01T05:32:23.066Z,11.61
2023-04-01T05:34:56.823Z,11.75
2023-04-01T05:37:27.769Z,12.27
2023-04-01T05:40:01.627Z,11.86
2023-04-01T05:42:31.414Z,12.15
2023-04-01T05:45:01.707Z,12.59
2023-04-01T05:47:33.575Z,12.19
2023-04-01T05:50:00.792Z,12.36
2023-04-01T05:52:33.855Z,12.38
2023-04-01T05:55:06.092Z,12.71
2023-04-01T05:57:36.444Z,11.70
2023-04-01T06:00:12.345Z,10.79
2023-04-01T06:02:45.267Z,11.55
2023-04-01T06:05:28.029Z,10.62
2023-04-01T06:08:12.650Z,11.26
2023-04-01T06:11:16.897Z,11.88
2023-04-01T06:14:16.099Z,11.21
2023-04-01T06:17:05.488Z,11.76
2023-04-01T06:20:04.868Z,10.75
2023-04-01T06:23:06.691Z,11.59
2023-04-01T06:26:04.010Z,11.46
2023-04-01T06:29:01.688Z,11.34
2023-04-01T06:32:15.651Z,11.90
2023-04-01T06:35:03.953Z,11.76
2023-04-01T06:38:21.865Z,12.06
2023-04-01T06:41:29.259Z,12.28
2023-04-01T06:44:19.984Z,12.44
2023-04-01T06:47:16.251Z,12.19
2023-04-01T06:49:52.123Z,11.86
2023-04-01T06:52:45.356Z,11.71
2023-04-01T06:55:45.510Z,12.44
2023-04-01T06:58:48.104Z,12.06
2023-04-01T07:01:29.645Z,12.01
2023-04-01T07:04:07.452Z,11.95
2023-04-01T07:07:05.546Z,13.03
2023-04-01T07:09:44.583Z,12.79
2023-04-01T07:12:40.204Z,13.74
2023-04-01T07:15:26.615Z,14.93
2023-04-01T07:18:38.225Z,15.23
2023-04-01T07:21:22.937Z,12.61
2023-04-01T07:24:02.610Z,12.81
2023-04-01T07:26:30.874Z,12.78
2023-04-01T07:29:03.677Z,13.53
2023-04-01T07:32:09.113Z,14.27
2023-04-01T07:35:01.462Z,13.81
2023-04-01T07:38:37.036Z,13.70
2023-04-01T07:41:12.940Z,13.28
2023-04-01T07:44:21.108Z,13.05
2023-04-01T07:47:08.923Z,13.74
2023-04-01T07:50:15.565Z,14.21
2023-04-01T07:53:26.834Z,14.48
2023-04-01T07:56:39.002Z,13.52
2023-04-01T07:59:58.633Z,14.20
2023-04-01T08:03:25.775Z,14.29
2023-04-01T08:06:11.606Z,14.44
2023-04-01T08:09:09.005Z,13.88
2023-04-01T08:12:18.478Z,13.87
2023-04-01T08:15:24.810Z,13.69
2023-04-01T08:18:35.553Z,13.71
2023-04-01T08:21:24.657Z,14.11
2023-04-01T08:23:58.563Z,14.51
2023-04-01T08:26:43.905Z,13.67
2023-04-01T08:29:24.974Z,13.67
2023-04-01T08:32:28.110Z,14.13
2023-04-01T08:35:43.645Z,14.23
2023-04-01T08:38:58.283Z,13.36
2023-04-01T08:42:08.525Z,14.01
2023-04-01T08:45:03.606Z,13.71
2023-04-01T08:48:38.155Z,14.77
2023-04-01T08:51:56.752Z,15.64
2023-04-01T08:54:48.400Z,14.77
2023-04-01T08:57:46.856Z,15.15
2023-04-01T09:00:32.857Z,14.70
2023-04-01T09:03:25.000Z,14.68
2023-04-01T09:06:17.878Z,14.87
2023-04-01T09:09:02.291Z,14.69
2023-04-01T09:12:12.907Z,15.15
2023-04-01T09:14:57.021Z,14.77
2023-04-01T09:18:03.351Z,16.17
2023-04-01T09:20:53.240Z,16.35
2023-04-01T09:23:42.858Z,15.60
2023-04-01T09:26:20.845Z,16.06
2023-04-01T09:29:35.770Z,15.49
2023-04-01T09:32:46.779Z,16.01
2023-04-01T09:35:19.147Z,16.46
2023-04-01T09:38:39.934Z,16.43
2023-04-01T09:41:28.222Z,16.10
2023-04-01T09:44:40.429Z,15.95
2023-04-01T09:48:06.828Z,18.21
2023-04-01T09:50:54.143Z,16.07
2023-04-01T09:54:01.004Z,17.75
2023-04-01T09:57:06.777Z,16.87
2023-04-01T10:00:15.816Z,20.19
2023-04-01T10:03:21.306Z,17.33
2023-04-01T10:06:25.211Z,16.92
2023-04-01T10:09:25.078Z,18.39
2023-04-01T10:12:19.893Z,18.06
2023-04-01T10:15:43.212Z,16.31
2023-04-01T10:18:45.204Z,17.98
2023-04-01T10:21:51.586Z,17.65
2023-04-01T10:24:21.448Z,17.59
2023-04-01T10:27:01.420Z,18.66
2023-04-01T10:30:24.016Z,17.22
2023-04-01T10:33:49.005Z,19.12
2023-04-01T10:36:37.757Z,19.73
2023-04-01T10:39:44.239Z,19.10
2023-04-01T10:43:04.874Z,19.43
2023-04-01T10:45:40.612Z,20.33
2023-04-01T10:48:58.854Z,17.91
2023-04-01T10:52:09.778Z,17.81
2023-04-01T10:55:37.279Z,17.21
2023-04-01T10:58:37.039Z,17.05
2023-04-01T11:02:04.031Z,18.57
2023-04-01T11:05:06.182Z,21.93
2023-04-01T11:08:10.076Z,20.63
2023-04-01T11:12:16.490Z,20.37
2023-04-01T11:15:50.808Z,17.11
2023-04-01T11:19:13.775Z,17.86
2023-04-01T11:22:11.806Z,17.43
2023-04-01T11:24:54.143Z,17.67
2023-04-01T11:28:24.400Z,17.29
2023-04-01T11:31:26.807Z,20.33
2023-04-01T11:34:38.448Z,18.44
2023-04-01T11:37:32.606Z,18.44
2023-04-01T11:41:04.552Z,20.50
2023-04-01T11:44:03.483Z,17.84
2023-04-01T11:47:02.937Z,18.23
2023-04-01T11:50:18.259Z,18.61
2023-04-01T11:53:28.273Z,17.85
2023-04-01T11:56:12.173Z,17.06
2023-04-01T11:59:04.131Z,17.82
2023-04-01T12:01:52.975Z,19.25
2023-04-01T12:05:14.881Z,18.55
2023-04-01T12:08:11.009Z,18.17
2023-04-01T12:11:42.994Z,21.74
2023-04-01T12:14:36.645Z,19.43
2023-04-01T12:17:29.240Z,19.71
2023-04-01T12:20:30.252Z,18.22
2023-04-01T12:23:09.599Z,18.24
2023-04-01T12:26:35.050Z,19.39
2023-04-01T12:29:31.261Z,18.72
2023-04-01T12:32:26.256Z,18.98
2023-04-01T12:35:39.103Z,19.02
2023-04-01T12:38:17.642Z,19.73
2023-04-01T12:41:32.098Z,18.46
2023-04-01T12:44:37.289Z,19.93
2023-04-01T12:47:33.654Z,20.60
2023-04-01T12:50:43.739Z,20.54
2023-04-01T12:53:46.078Z,22.35
2023-04-01T12:56:32.102Z,19.49
2023-04-01T12:59:29.247Z,18.83
2023-04-01T13:02:30.125Z,19.39
2023-04-01T13:05:40.281Z,18.79
2023-04-01T13:08:46.066Z,18.77
2023-04-01T13:11:50.595Z,18.91
2023-04-01T13:14:55.232Z,20.79
2023-04-01T13:17:39.231Z,19.97
2023-04-01T13:20:31.685Z,18.33
2023-04-01T13:23:20.128Z,17.84
2023-04-01T13:26:34.131Z,19.25
2023-04-01T13:30:13.421Z,18.95
2023-04-01T13:33:07.669Z,17.65
2023-04-01T13:36:01.195Z,18.34
2023-04-01T13:39:34.560Z,19.37
2023-04-01T13:42:38.920Z,18.70
2023-04-01T13:45:28.781Z,19.56
2023-04-01T13:48:32.712Z,20.47
2023-04-01T13:51:35.553Z,20.54
2023-04-01T13:54:30.565Z,20.42
2023-04-01T13:57:20.269Z,17.84
2023-04-01T13:59:50.317Z,18.34
2023-04-01T14:02:46.233Z,19.33
2023-04-01T14:05:43.182Z,20.60
2023-04-01T14:08:46.017Z,20.03
2023-04-01T14:12:03.795Z,19.97
2023-04-01T14:15:36.172Z,17.91
2023-04-01T14:18:29.454Z,17.97
2023-04-01T14:21:33.746Z,17.10
2023-04-01T14:24:54.766Z,17.30
2023-04-01T14:27:55.914Z,17.72
2023-04-01T14:31:08.225Z,20.07
2023-04-01T14:34:06.746Z,19.56
2023-04-01T14:37:19.476Z,19.42
2023-04-01T14:40:24.176Z,18.45
2023-04-01T14:43:06.938Z,19.82
2023-04-01T14:46:20.552Z,19.07
2023-04-01T14:49:20.979Z,18.84
2023-04-01T14:51:52.989Z,18.64
2023-04-01T14:54:52.964Z,18.25
2023-04-01T14:57:32.992Z,19.39
2023-04-01T15:00:19.613Z,19.59
2023-04-01T15:02:58.363Z,19.92
2023-04-01T15:05:56.066Z,19.07
2023-04-01T15:08:54.507Z,19.44
2023-04-01T15:11:57.440Z,20.04
2023-04-01T15:14:54.876Z,19.01
2023-04-01T15:17:44.089Z,17.83
2023-04-01T15:20:58.459Z,18.38
2023-04-01T15:24:00.772Z,17.28
2023-04-01T15:26:45.964Z,17.99
2023-04-01T15:29:50.518Z,17.76
2023-04-01T15:32:51.212Z,17.37
2023-04-01T15:36:00.648Z,17.25
2023-04-01T15:42:21.808Z,16.66
2023-04-01T15:45:21.447Z,18.43
2023-04-01T15:48:08.970Z,18.76
2023-04-01T15:51:15.193Z,16.42
2023-04-01T15:54:32.622Z,16.50
2023-04-01T15:57:27.944Z,18.37
2023-04-01T16:00:32.063Z,18.43
2023-04-01T16:03:47.654Z,17.74
2023-04-01T16:06:44.969Z,16.58
2023-04-01T16:10:16.449Z,16.36
2023-04-01T16:13:21.657Z,16.77
2023-04-01T16:16:09.582Z,16.62
2023-04-01T16:18:55.251Z,17.18
2023-04-01T16:22:11.443Z,17.08
2023-04-01T16:25:16.605Z,15.09
2023-04-01T16:27:53.458Z,15.19
2023-04-01T16:30:34.741Z,14.92
2023-04-01T16:33:14.516Z,15.23
2023-04-01T16:36:04.233Z,15.71
2023-04-01T16:38:47.674Z,15.84
2023-04-01T16:41:34.464Z,15.53
2023-04-01T16:44:29.900Z,15.11
2023-04-01T16:47:37.098Z,15.29
2023-04-01T16:50:42.055Z,15.48
2023-04-01T16:53:16.959Z,14.89
2023-04-01T16:55:56.287Z,14.38
2023-04-01T16:58:44.757Z,14.13
2023-04-01T17:01:53.833Z,14.05
2023-04-01T17:04:59.765Z,14.15
2023-04-01T17:07:54.801Z,14.13
2023-04-01T17:10:51.955Z,14.73
2023-04-01T17:13:49.458Z,14.45
2023-04-01T17:16:38.777Z,14.43
2023-04-01T17:19:28.465Z,13.98
2023-04-01T17:22:32.308Z,13.86
2023-04-01T17:25:06.450Z,14.20
2023-04-01T17:28:17.494Z,13.87
2023-04-01T17:31:02.983Z,13.77
2023-04-01T17:33:55.940Z,13.39
2023-04-01T17:37:23.735Z,12.89
2023-04-01T17:40:23.270Z,13.52
2023-04-01T17:43:28.430Z,13.03
2023-04-01T17:46:02.512Z,12.94
2023-04-01T17:49:20.542Z,13.05
2023-04-01T17:52:16.930Z,13.97
2023-04-01T17:55:07.245Z,14.16
2023-04-01T17:58:04.954Z,13.18
2023-04-01T18:01:09.770Z,14.87
2023-04-01T18:04:01.428Z,15.02
2023-04-01T18:06:37.509Z,15.26
2023-04-01T18:09:34.343Z,15.26
2023-04-01T18:12:20.699Z,15.09
2023-04-01T18:15:31.629Z,15.36
2023-04-01T18:18:50.674Z,14.78
2023-04-01T18:21:41.192Z,13.98
2023-04-01T18:24:29.221Z,14.08
2023-04-01T18:27:33.680Z,13.42
2023-04-01T18:30:18.189Z,13.46
2023-04-01T18:33:21.090Z,13.29
2023-04-01T18:36:31.365Z,13.23
2023-04-01T18:39:26.287Z,13.51
2023-04-01T18:42:42.419Z,13.46
2023-04-01T18:45:51.118Z,13.33
2023-04-01T18:48:57.565Z,13.03
2023-04-01T18:51:49.359Z,13.02
2023-04-01T18:54:33.370Z,13.25
2023-04-01T18:57:15.744Z,13.21
2023-04-01T19:00:05.665Z,12.93
2023-04-01T19:03:08.306Z,13.08
2023-04-01T19:05:49.843Z,13.28
2023-04-01T19:08:40.782Z,13.36
2023-04-01T19:11:27.578Z,13.23
2023-04-01T19:14:42.705Z,13.41
2023-04-01T19:17:47.292Z,13.46
2023-04-01T19:20:49.257Z,13.52
2023-04-01T19:23:48.806Z,12.24
2023-04-01T19:27:11.141Z,12.93
2023-04-01T19:30:13.316Z,13.49
2023-04-01T19:33:23.963Z,13.30
2023-04-01T19:36:07.652Z,13.56
2023-04-01T19:39:19.373Z,13.75
2023-04-01T19:42:36.182Z,13.37
2023-04-01T19:45:55.681Z,13.35
2023-04-01T19:49:08.670Z,13.46
2023-04-01T19:52:21.843Z,13.56
2023-04-01T19:55:02.527Z,13.59
2023-04-01T19:57:49.831Z,13.77
2023-04-01T20:00:36.386Z,12.83
2023-04-01T20:03:06.405Z,13.60
2023-04-01T20:06:07.747Z,13.82
2023-04-01T20:09:17.036Z,13.69
2023-04-01T20:12:22.602Z,13.74
2023-04-01T20:15:34.085Z,11.74
2023-04-01T20:18:15.606Z,11.27
2023-04-01T20:21:05.392Z,11.82
2023-04-01T20:24:11.651Z,11.60
2023-04-01T20:27:27.378Z,10.50
2023-04-01T20:30:25.886Z,10.44
2023-04-01T20:33:09.796Z,10.55
2023-04-01T20:36:07.218Z,11.43
2023-04-01T20:39:05.604Z,11.68
2023-04-01T20:41:48.046Z,11.85
2023-04-01T20:45:14.502Z,11.91
2023-04-01T20:48:17.149Z,11.88
2023-04-01T20:51:18.320Z,11.36
2023-04-01T20:54:03.574Z,11.18
2023-04-01T20:57:24.355Z,11.54
2023-04-01T21:00:32.019Z,12.09
2023-04-01T21:06:34.869Z,12.47
2023-04-01T21:09:43.592Z,12.53
2023-04-01T21:12:33.717Z,12.63
2023-04-01T21:15:27.151Z,12.91
2023-04-01T21:18:47.737Z,12.67
2023-04-01T21:21:45.567Z,12.50
2023-04-01T21:24:43.855Z,12.50
2023-04-01T21:27:45.448Z,12.21
2023-04-01T21:30:50.298Z,12.14
2023-04-01T21:34:05.883Z,12.11
2023-04-01T21:37:23.999Z,12.42
2023-04-01T21:40:45.536Z,9.88
2023-04-01T21:43:34.614Z,10.08
2023-04-01T21:47:02.841Z,10.09
2023-04-01T21:49:47.661Z,10.75
2023-04-01T21:53:02.256Z,10.67
2023-04-01T21:56:17.335Z,10.60
2023-04-01T21:59:43.143Z,10.44
2023-04-01T22:03:20.131Z,10.59
2023-04-01T22:06:17.158Z,10.64
2023-04-01T22:09:36.084Z,10.72
2023-04-01T22:12:24.756Z,10.83
2023-04-01T22:15:38.469Z,10.79
2023-04-01T22:18:35.260Z,10.53
2023-04-01T22:21:17.539Z,10.67
2023-04-01T22:24:36.645Z,10.99
2023-04-01T22:27:26.178Z,11.36
2023-04-01T22:30:26.389Z,11.62
2023-04-01T22:33:17.827Z,11.81
2023-04-01T22:36:08.387Z,11.65
2023-04-01T22:39:12.277Z,11.62
2023-04-01T22:42:17.141Z,11.78
2023-04-01T22:45:16.102Z,11.76
2023-04-01T22:48:26.551Z,12.16
2023-04-01T22:51:46.109Z,12.04
2023-04-01T22:54:46.544Z,11.84
2023-04-01T22:57:56.535Z,11.67
2023-04-01T23:00:36.278Z,11.76
2023-04-01T23:03:20.663Z,10.75
2023-04-01T23:06:01.590Z,10.78
2023-04-01T23:08:31.210Z,10.04
2023-04-01T23:11:08.001Z,8.56
2023-04-01T23:13:52.184Z,9.96
2023-04-01T23:16:33.731Z,10.04
2023-04-01T23:19:21.530Z,10.48
2023-04-01T23:22:19.343Z,10.41
2023-04-01T23:25:18.428Z,10.14
2023-04-01T23:28:02.084Z,10.45
2023-04-01T23:30:42.651Z,9.45
2023-04-01T23:33:21.469Z,9.30
2023-04-01T23:36:12.973Z,9.79
2023-04-01T23:38:43.201Z,9.93
2023-04-01T23:41:29.670Z,9.58
2023-04-01T23:44:08.574Z,9.99
2023-04-01T23:46:47.055Z,10.03
2023-04-01T23:49:31.403Z,9.93
2023-04-01T23:52:05.583Z,10.22
2023-04-01T23:54:45.862Z,10.53
2023-04-01T23:57:23.448Z,10.42
